Time;durP1;ratioP1;P1;durP2;ratioP2;P2;SDS_P1;SDS_P2;PMS_P1;PMS_P2;Temp;Humidity;BMP_temperature;BMP_pressure;BME280_temperature;BME280_humidity;BME280_pressure;Samples;Min_cycle;Max_cycle;Signal;HPM_P1;HPM_P2
2022/05/03 00:00:34;;;;;;;;;19.25;15.00;;;;;;;;5102580;27;61914;-74
2022/05/03 00:03:06;;;;;;;;;20.50;17.00;;;;;;;;5101579;27;61718;-74
2022/05/03 00:05:31;;;;;;;;;19.00;15.00;;;;;;;;5104722;27;61987;-74
2022/05/03 00:08:08;;;;;;;;;25.75;17.00;;;;;;;;5105357;27;62000;-74
2022/05/03 00:10:52;;;;;;;;;19.25;17.25;;;;;;;;5106191;27;61735;-74
2022/05/03 00:13:19;;;;;;;;;26.25;17.75;;;;;;;;5104649;27;61835;-74
2022/05/03 00:15:45;;;;;;;;;24.25;19.00;;;;;;;;5105718;27;61900;-74
2022/05/03 00:18:10;;;;;;;;;20.50;14.00;;;;;;;;5105481;27;61905;-74
2022/05/03 00:20:36;;;;;;;;;16.25;13.75;;;;;;;;5105576;27;61768;-74
2022/05/03 00:23:01;;;;;;;;;18.00;16.75;;;;;;;;5104981;27;61637;-74
2022/05/03 00:25:27;;;;;;;;;28.25;19.75;;;;;;;;5105479;27;61810;-74
2022/05/03 00:27:52;;;;;;;;;26.75;18.50;;;;;;;;5105112;27;61754;-75
2022/05/03 00:30:18;;;;;;;;;20.00;17.25;;;;;;;;5105540;27;61759;-74
2022/05/03 00:32:43;;;;;;;;;25.50;20.75;;;;;;;;5105062;27;61720;-74
2022/05/03 00:35:09;;;;;;;;;20.00;18.25;;;;;;;;5104668;27;61838;-73
2022/05/03 00:37:34;;;;;;;;;24.25;21.75;;;;;;;;5105395;27;61729;-74
2022/05/03 00:40:00;;;;;;;;;23.25;20.00;;;;;;;;5104448;27;61774;-73
2022/05/03 00:42:29;;;;;;;;;27.25;20.75;;;;;;;;5104770;27;62477;-74
2022/05/03 00:45:01;;;;;;;;;19.75;16.25;;;;;;;;5105409;27;61785;-75
2022/05/03 00:47:45;;;;;;;;;27.00;22.00;;;;;;;;5105357;27;61813;-74
2022/05/03 00:50:15;;;;;;;;;22.00;17.50;;;;;;;;5102077;27;62096;-74
2022/05/03 00:52:44;;;;;;;;;18.25;15.50;;;;;;;;5104583;27;62865;-74
2022/05/03 00:55:28;;;;;;;;;17.50;15.75;;;;;;;;5104512;27;62089;-74
2022/05/03 00:58:03;;;;;;;;;20.50;17.75;;;;;;;;5105059;27;61742;-74
2022/05/03 01:00:28;;;;;;;;;21.25;17.75;;;;;;;;5105294;27;61814;-74
2022/05/03 01:03:09;;;;;;;;;23.00;17.50;;;;;;;;5104412;27;61832;-74
2022/05/03 01:05:37;;;;;;;;;17.25;14.75;;;;;;;;5104403;27;61940;-74
2022/05/03 01:08:04;;;;;;;;;22.50;20.75;;;;;;;;5104567;27;61775;-74
2022/05/03 01:10:36;;;;;;;;;22.50;17.00;;;;;;;;5104599;27;61786;-74
2022/05/03 01:13:04;;;;;;;;;20.25;18.50;;;;;;;;5104008;27;61775;-74
2022/05/03 01:15:30;;;;;;;;;20.00;15.50;;;;;;;;5104055;27;61642;-74
2022/05/03 01:17:59;;;;;;;;;19.00;11.75;;;;;;;;5104965;27;61915;-74
2022/05/03 01:20:36;;;;;;;;;20.50;18.75;;;;;;;;5104470;27;61934;-74
2022/05/03 01:23:34;;;;;;;;;18.25;17.50;;;;;;;;5104057;27;62746;-75
2022/05/03 01:26:19;;;;;;;;;19.00;16.25;;;;;;;;5081636;28;61748;-74
2022/05/03 01:29:04;;;;;;;;;22.25;16.25;;;;;;;;5001004;28;62058;-74
2022/05/03 01:31:29;;;;;;;;;23.50;19.25;;;;;;;;5001300;28;61787;-74
2022/05/03 01:33:59;;;;;;;;;20.25;18.00;;;;;;;;5000361;28;62092;-74
2022/05/03 01:36:30;;;;;;;;;24.00;17.75;;;;;;;;5000762;28;61855;-74
2022/05/03 01:39:22;;;;;;;;;24.75;17.50;;;;;;;;5000224;28;61849;-74
2022/05/03 01:41:56;;;;;;;;;21.00;17.75;;;;;;;;5001490;28;61794;-74
2022/05/03 01:44:24;;;;;;;;;24.00;17.50;;;;;;;;5000399;28;61981;-74
2022/05/03 01:46:53;;;;;;;;;24.00;15.50;;;;;;;;5001080;28;61705;-74
2022/05/03 01:52:21;;;;;;;;;20.75;14.25;;;;;;;;5020707;28;61876;-74
2022/05/03 01:54:56;;;;;;;;;18.00;17.00;;;;;;;;5019589;28;63214;-75
2022/05/03 01:57:39;;;;;;;;;26.50;19.50;;;;;;;;5020376;28;61963;-75
2022/05/03 02:00:06;;;;;;;;;27.00;19.00;;;;;;;;5020709;28;61995;-75
2022/05/03 02:02:49;;;;;;;;;22.00;16.75;;;;;;;;5055154;28;61777;-75
2022/05/03 02:05:25;;;;;;;;;28.50;21.25;;;;;;;;5069033;27;61767;-75
2022/05/03 02:07:57;;;;;;;;;23.00;15.00;;;;;;;;5103325;27;61754;-75
2022/05/03 02:10:41;;;;;;;;;20.00;16.50;;;;;;;;5103735;27;61846;-75
2022/05/03 02:13:22;;;;;;;;;22.25;14.25;;;;;;;;5104086;27;61978;-75
2022/05/03 02:15:50;;;;;;;;;19.25;18.00;;;;;;;;5103261;27;62127;-75
2022/05/03 02:18:15;;;;;;;;;23.25;18.25;;;;;;;;5103810;27;61900;-75
2022/05/03 02:20:58;;;;;;;;;19.75;14.00;;;;;;;;5103534;27;61762;-75
2022/05/03 02:23:42;;;;;;;;;22.50;16.00;;;;;;;;5103376;27;61949;-74
2022/05/03 02:26:18;;;;;;;;;20.00;17.25;;;;;;;;5102753;27;62767;-75
2022/05/03 02:29:03;;;;;;;;;21.00;14.50;;;;;;;;5101920;27;61765;-75
2022/05/03 02:31:34;;;;;;;;;18.75;16.00;;;;;;;;5103575;27;61828;-75
2022/05/03 02:34:19;;;;;;;;;21.00;17.50;;;;;;;;5103634;27;61921;-75
2022/05/03 02:36:55;;;;;;;;;17.00;15.00;;;;;;;;5058939;28;61938;-74
2022/05/03 02:39:24;;;;;;;;;25.25;18.25;;;;;;;;5059547;28;61911;-75
2022/05/03 02:41:50;;;;;;;;;22.25;14.75;;;;;;;;5043415;28;61791;-74
2022/05/03 02:44:19;;;;;;;;;24.50;18.75;;;;;;;;5060497;28;61869;-75
2022/05/03 02:46:56;;;;;;;;;20.50;15.25;;;;;;;;5059504;28;62749;-74
2022/05/03 02:49:37;;;;;;;;;21.75;18.75;;;;;;;;5059852;28;61906;-75
2022/05/03 02:52:09;;;;;;;;;21.75;17.50;;;;;;;;5059959;28;62000;-74
2022/05/03 02:54:40;;;;;;;;;22.25;17.75;;;;;;;;5060150;28;61963;-74
2022/05/03 02:57:08;;;;;;;;;30.75;16.25;;;;;;;;5059327;28;61813;-74
2022/05/03 03:02:52;;;;;;;;;26.00;16.25;;;;;;;;5059784;28;61901;-74
2022/05/03 03:05:22;;;;;;;;;24.75;18.25;;;;;;;;5059259;28;61954;-75
2022/05/03 03:08:00;;;;;;;;;18.00;18.00;;;;;;;;5058506;28;61886;-74
2022/05/03 03:10:38;;;;;;;;;21.00;15.75;;;;;;;;5059842;28;61842;-74
2022/05/03 03:13:03;;;;;;;;;17.00;16.00;;;;;;;;5049833;27;61859;-75
2022/05/03 03:15:29;;;;;;;;;21.00;14.00;;;;;;;;5102831;27;61855;-74
2022/05/03 03:17:55;;;;;;;;;23.00;17.00;;;;;;;;5100904;27;63378;-74
2022/05/03 03:20:27;;;;;;;;;22.50;17.75;;;;;;;;5102043;27;61785;-75
2022/05/03 03:22:53;;;;;;;;;20.00;17.75;;;;;;;;5101596;27;61738;-75
2022/05/03 03:25:19;;;;;;;;;14.75;13.75;;;;;;;;5103270;27;61754;-74
2022/05/03 03:27:45;;;;;;;;;24.00;19.75;;;;;;;;5101948;27;61712;-75
2022/05/03 03:30:12;;;;;;;;;16.25;14.25;;;;;;;;5102963;27;61683;-75
2022/05/03 03:32:42;;;;;;;;;19.25;12.00;;;;;;;;5102650;27;61748;-75
2022/05/03 03:35:08;;;;;;;;;21.50;16.25;;;;;;;;5100963;27;61789;-74
2022/05/03 03:37:36;;;;;;;;;17.00;16.50;;;;;;;;5101881;27;62992;-75
2022/05/03 03:40:05;;;;;;;;;18.50;16.00;;;;;;;;5106030;27;61828;-75
2022/05/03 03:42:30;;;;;;;;;35.50;20.25;;;;;;;;5106340;27;61988;-75
2022/05/03 03:45:06;;;;;;;;;21.25;18.00;;;;;;;;5106185;27;61749;-75
2022/05/03 03:47:31;;;;;;;;;22.00;16.50;;;;;;;;5105587;27;61818;-74
2022/05/03 03:49:58;;;;;;;;;19.25;17.00;;;;;;;;5103810;27;61765;-74
2022/05/03 03:52:24;;;;;;;;;28.75;19.00;;;;;;;;5106377;27;61919;-75
2022/05/03 03:54:50;;;;;;;;;24.50;18.75;;;;;;;;5105955;27;62128;-75
2022/05/03 03:57:15;;;;;;;;;20.75;16.75;;;;;;;;5104073;27;64861;-75
2022/05/03 03:59:41;;;;;;;;;21.00;16.75;;;;;;;;5105987;27;61898;-75
2022/05/03 04:02:06;;;;;;;;;23.00;17.25;;;;;;;;5104791;27;61747;-75
2022/05/03 04:04:35;;;;;;;;;23.50;18.50;;;;;;;;5105332;27;61717;-74
2022/05/03 04:07:00;;;;;;;;;20.75;14.25;;;;;;;;5105066;27;61892;-75
2022/05/03 04:09:26;;;;;;;;;17.50;13.50;;;;;;;;5105533;27;61848;-75
2022/05/03 04:11:51;;;;;;;;;19.75;15.25;;;;;;;;5104420;27;61731;-74
2022/05/03 04:14:16;;;;;;;;;21.75;13.50;;;;;;;;5105969;27;61728;-74
2022/05/03 04:16:42;;;;;;;;;22.00;15.25;;;;;;;;5104828;27;61739;-75
2022/05/03 04:19:07;;;;;;;;;26.50;20.25;;;;;;;;5105127;27;61709;-74
2022/05/03 04:21:33;;;;;;;;;27.25;20.25;;;;;;;;5105892;27;61874;-75
2022/05/03 04:23:59;;;;;;;;;20.50;18.25;;;;;;;;5105443;27;61737;-75
2022/05/03 04:26:24;;;;;;;;;17.75;16.75;;;;;;;;5105047;27;62427;-74
2022/05/03 04:28:49;;;;;;;;;22.75;20.25;;;;;;;;5105430;27;61695;-75
2022/05/03 04:31:15;;;;;;;;;24.25;21.50;;;;;;;;5105571;27;61751;-74
2022/05/03 04:33:40;;;;;;;;;23.75;19.00;;;;;;;;5105286;27;61719;-75
2022/05/03 04:36:05;;;;;;;;;18.25;15.25;;;;;;;;5103067;27;63321;-74
2022/05/03 04:38:30;;;;;;;;;19.75;18.25;;;;;;;;5105042;27;61925;-74
2022/05/03 04:41:02;;;;;;;;;25.25;21.25;;;;;;;;5105103;27;61840;-74
2022/05/03 04:43:28;;;;;;;;;17.75;16.00;;;;;;;;5105420;27;61752;-74
2022/05/03 04:45:53;;;;;;;;;18.50;16.25;;;;;;;;5104642;27;61930;-74
2022/05/03 04:48:19;;;;;;;;;18.25;17.25;;;;;;;;5104942;27;61768;-74
2022/05/03 04:50:44;;;;;;;;;24.75;21.50;;;;;;;;5102015;27;62021;-74
2022/05/03 04:53:09;;;;;;;;;28.50;17.25;;;;;;;;5105073;27;62123;-74
2022/05/03 04:55:38;;;;;;;;;17.75;15.25;;;;;;;;5104501;27;62929;-74
2022/05/03 04:58:04;;;;;;;;;25.25;16.00;;;;;;;;5104877;27;61735;-74
2022/05/03 05:00:29;;;;;;;;;27.50;20.00;;;;;;;;5105309;27;61858;-74
2022/05/03 05:02:54;;;;;;;;;27.00;23.00;;;;;;;;5104806;27;62124;-74
2022/05/03 05:05:19;;;;;;;;;23.00;15.25;;;;;;;;5103883;27;61972;-74
2022/05/03 05:07:45;;;;;;;;;20.75;16.75;;;;;;;;5104326;27;61705;-73
2022/05/03 05:10:26;;;;;;;;;21.50;17.00;;;;;;;;5104866;27;61818;-74
2022/05/03 05:12:55;;;;;;;;;21.50;15.75;;;;;;;;5105146;27;61888;-74
2022/05/03 05:15:23;;;;;;;;;26.00;18.50;;;;;;;;5104465;27;61812;-74
2022/05/03 05:17:49;;;;;;;;;24.00;19.00;;;;;;;;5102818;27;61778;-74
2022/05/03 05:20:14;;;;;;;;;31.25;22.25;;;;;;;;5104145;27;61696;-74
2022/05/03 05:22:39;;;;;;;;;31.75;23.50;;;;;;;;5104960;27;61700;-74
2022/05/03 05:25:05;;;;;;;;;22.25;17.50;;;;;;;;5103978;27;61927;-74
2022/05/03 05:27:30;;;;;;;;;23.00;20.75;;;;;;;;5104595;27;61920;-74
2022/05/03 05:29:55;;;;;;;;;22.25;18.00;;;;;;;;5104401;27;61869;-74
2022/05/03 05:32:21;;;;;;;;;22.00;19.00;;;;;;;;5104359;27;61803;-74
2022/05/03 05:34:46;;;;;;;;;21.25;18.75;;;;;;;;5103881;27;61978;-74
2022/05/03 05:37:11;;;;;;;;;26.25;19.00;;;;;;;;5103885;27;61908;-74
2022/05/03 05:39:36;;;;;;;;;25.00;18.25;;;;;;;;5103533;27;61930;-74
2022/05/03 05:42:02;;;;;;;;;26.75;20.50;;;;;;;;5104410;27;61826;-74
2022/05/03 05:44:27;;;;;;;;;24.75;20.25;;;;;;;;5104000;27;62601;-74
2022/05/03 05:46:53;;;;;;;;;25.75;22.25;;;;;;;;5103742;27;61789;-74
2022/05/03 05:49:18;;;;;;;;;22.50;18.75;;;;;;;;5101510;27;62406;-74
2022/05/03 05:51:45;;;;;;;;;27.75;19.25;;;;;;;;5104321;27;61818;-74
2022/05/03 05:54:10;;;;;;;;;23.25;18.00;;;;;;;;5103498;27;61891;-74
2022/05/03 05:56:35;;;;;;;;;24.50;17.50;;;;;;;;5104014;27;61866;-74
2022/05/03 05:59:00;;;;;;;;;19.75;15.50;;;;;;;;5103952;27;61800;-74
2022/05/03 06:01:26;;;;;;;;;18.50;16.25;;;;;;;;5103875;27;61846;-74
2022/05/03 06:03:51;;;;;;;;;19.75;16.75;;;;;;;;5103113;27;62467;-74
2022/05/03 06:06:17;;;;;;;;;31.75;20.00;;;;;;;;5103327;27;61839;-74
2022/05/03 06:08:42;;;;;;;;;21.50;18.50;;;;;;;;5103828;27;62449;-74
2022/05/03 06:11:08;;;;;;;;;22.50;21.00;;;;;;;;5103758;27;61777;-74
2022/05/03 06:13:34;;;;;;;;;27.50;19.25;;;;;;;;5101282;27;64186;-74
2022/05/03 06:16:06;;;;;;;;;22.75;20.50;;;;;;;;5103823;27;61907;-74
2022/05/03 06:18:31;;;;;;;;;24.25;20.25;;;;;;;;5103681;27;61686;-74
2022/05/03 06:20:57;;;;;;;;;24.25;19.25;;;;;;;;5103820;27;61855;-74
2022/05/03 06:23:22;;;;;;;;;23.75;21.50;;;;;;;;5102823;27;61845;-74
2022/05/03 06:25:48;;;;;;;;;19.00;17.75;;;;;;;;5103459;27;61786;-74
2022/05/03 06:28:14;;;;;;;;;26.00;20.00;;;;;;;;5103312;27;61681;-74
2022/05/03 06:30:40;;;;;;;;;23.75;19.00;;;;;;;;5103942;27;61694;-74
2022/05/03 06:33:06;;;;;;;;;18.75;17.75;;;;;;;;5102723;27;61776;-74
2022/05/03 06:35:31;;;;;;;;;21.00;18.00;;;;;;;;5103442;27;61888;-74
2022/05/03 06:37:56;;;;;;;;;20.25;13.25;;;;;;;;5103094;27;61833;-74
2022/05/03 06:40:22;;;;;;;;;26.50;18.75;;;;;;;;5102153;27;61766;-74
2022/05/03 06:42:47;;;;;;;;;26.50;15.50;;;;;;;;5102455;27;61988;-74
2022/05/03 06:45:12;;;;;;;;;25.25;19.00;;;;;;;;5103113;27;61813;-74
2022/05/03 06:47:39;;;;;;;;;23.50;18.75;;;;;;;;5103308;27;61976;-74
2022/05/03 06:50:04;;;;;;;;;24.00;21.75;;;;;;;;5099345;27;61790;-74
2022/05/03 06:52:30;;;;;;;;;23.75;19.75;;;;;;;;5102697;27;61797;-74
2022/05/03 06:54:55;;;;;;;;;19.50;19.50;;;;;;;;5101987;27;61992;-74
2022/05/03 06:57:20;;;;;;;;;25.00;18.50;;;;;;;;5102617;27;61750;-74
2022/05/03 06:59:46;;;;;;;;;20.25;18.25;;;;;;;;5101874;27;61837;-74
2022/05/03 07:02:11;;;;;;;;;18.25;14.25;;;;;;;;5102795;27;62839;-74
2022/05/03 07:04:36;;;;;;;;;22.25;18.75;;;;;;;;5101244;27;61905;-74
2022/05/03 07:07:02;;;;;;;;;14.50;14.25;;;;;;;;5102778;27;62006;-74
2022/05/03 07:09:27;;;;;;;;;17.50;16.50;;;;;;;;5102700;27;62002;-74
2022/05/03 07:11:52;;;;;;;;;25.50;18.25;;;;;;;;5102114;27;62670;-74
2022/05/03 07:14:18;;;;;;;;;28.50;17.75;;;;;;;;5102298;27;61987;-74
2022/05/03 07:16:43;;;;;;;;;17.50;17.50;;;;;;;;5102833;27;61888;-74
2022/05/03 07:24:36;;;;;;;;;25.00;15.00;;;;;;;;5102880;27;61845;-74
2022/05/03 07:27:02;;;;;;;;;22.75;13.50;;;;;;;;5102461;27;61941;-74
2022/05/03 07:29:27;;;;;;;;;15.50;15.50;;;;;;;;5101481;27;62055;-74
2022/05/03 07:31:53;;;;;;;;;22.00;16.25;;;;;;;;5102185;27;61719;-74
2022/05/03 07:34:18;;;;;;;;;20.00;15.50;;;;;;;;5102429;27;61956;-74
2022/05/03 07:36:43;;;;;;;;;12.50;11.75;;;;;;;;5102788;27;61791;-74
2022/05/03 07:39:10;;;;;;;;;18.25;13.50;;;;;;;;5100978;27;61776;-74
2022/05/03 07:41:36;;;;;;;;;24.25;15.75;;;;;;;;5101373;27;61728;-74
2022/05/03 07:44:01;;;;;;;;;15.25;13.75;;;;;;;;5102833;27;61852;-74
2022/05/03 07:46:26;;;;;;;;;22.75;17.00;;;;;;;;5102637;27;62005;-74
2022/05/03 07:48:51;;;;;;;;;20.75;18.00;;;;;;;;5100350;27;61838;-75
2022/05/03 07:51:17;;;;;;;;;19.00;16.75;;;;;;;;5100231;27;63431;-74
2022/05/03 07:53:42;;;;;;;;;19.50;16.25;;;;;;;;5102497;27;61712;-74
2022/05/03 07:56:10;;;;;;;;;18.50;16.00;;;;;;;;5102093;27;62009;-74
2022/05/03 07:58:35;;;;;;;;;20.25;17.50;;;;;;;;5102289;27;61858;-74
2022/05/03 08:01:01;;;;;;;;;18.75;14.50;;;;;;;;5101980;27;62519;-74
2022/05/03 08:03:26;;;;;;;;;18.75;14.25;;;;;;;;5102448;27;61776;-74
2022/05/03 08:05:52;;;;;;;;;19.00;13.00;;;;;;;;5102081;27;62040;-74
2022/05/03 08:08:17;;;;;;;;;19.00;15.00;;;;;;;;5102143;27;62091;-74
2022/05/03 08:10:45;;;;;;;;;21.50;15.25;;;;;;;;5099586;27;63734;-74
2022/05/03 08:13:10;;;;;;;;;11.75;11.75;;;;;;;;5102646;27;61652;-74
2022/05/03 08:15:35;;;;;;;;;1.75;1.00;;;;;;;;5102501;27;61703;-74
2022/05/03 08:18:00;;;;;;;;;18.25;16.25;;;;;;;;5102330;27;61684;-74
2022/05/03 08:20:26;;;;;;;;;14.25;12.50;;;;;;;;5101552;27;61789;-74
2022/05/03 08:22:52;;;;;;;;;23.00;15.50;;;;;;;;5100361;27;62247;-74
2022/05/03 08:25:17;;;;;;;;;19.50;12.75;;;;;;;;5102909;27;61815;-74
2022/05/03 08:27:42;;;;;;;;;14.25;14.00;;;;;;;;5104400;27;62173;-74
2022/05/03 08:30:08;;;;;;;;;18.75;15.25;;;;;;;;5105130;27;61776;-74
2022/05/03 08:32:34;;;;;;;;;18.25;14.75;;;;;;;;5104219;27;61984;-74
2022/05/03 08:34:59;;;;;;;;;20.75;12.75;;;;;;;;5105232;27;62021;-75
2022/05/03 08:42:53;;;;;;;;;13.25;13.00;;;;;;;;5105379;27;62013;-74
2022/05/03 08:45:18;;;;;;;;;16.50;12.25;;;;;;;;5105652;27;62105;-74
2022/05/03 08:47:46;;;;;;;;;24.00;17.25;;;;;;;;5105121;27;61828;-74
2022/05/03 08:50:12;;;;;;;;;13.50;13.50;;;;;;;;5101976;27;62666;-74
2022/05/03 08:52:55;;;;;;;;;18.50;14.00;;;;;;;;5105406;27;61860;-74
2022/05/03 08:55:21;;;;;;;;;12.50;12.50;;;;;;;;5105082;27;61878;-74
2022/05/03 08:57:47;;;;;;;;;17.50;15.50;;;;;;;;5105274;27;62093;-74
2022/05/03 09:00:13;;;;;;;;;14.25;13.75;;;;;;;;5104671;27;62639;-75
2022/05/03 09:02:42;;;;;;;;;10.50;8.75;;;;;;;;5105125;27;61751;-74
2022/05/03 09:05:08;;;;;;;;;17.00;12.75;;;;;;;;5104741;27;61759;-74
2022/05/03 09:07:36;;;;;;;;;16.00;14.00;;;;;;;;5104887;27;61723;-74
2022/05/03 09:10:14;;;;;;;;;11.75;10.50;;;;;;;;5104100;27;62529;-74
2022/05/03 09:12:39;;;;;;;;;15.50;14.25;;;;;;;;5105183;27;61715;-74
2022/05/03 09:15:05;;;;;;;;;11.25;10.75;;;;;;;;5104954;27;61743;-74
2022/05/03 09:17:38;;;;;;;;;17.00;14.00;;;;;;;;5105049;27;61840;-74
2022/05/03 09:25:52;;;;;;;;;18.25;12.75;;;;;;;;5104659;27;61660;-75
2022/05/03 09:28:22;;;;;;;;;12.75;11.25;;;;;;;;5104915;27;61680;-74
2022/05/03 09:30:50;;;;;;;;;13.50;11.25;;;;;;;;5102810;27;63482;-74
2022/05/03 09:33:18;;;;;;;;;13.50;11.75;;;;;;;;5104607;27;61763;-74
2022/05/03 09:35:43;;;;;;;;;23.50;13.00;;;;;;;;5104103;27;61826;-75
2022/05/03 09:38:08;;;;;;;;;16.25;12.00;;;;;;;;5103701;27;61722;-74
2022/05/03 09:40:35;;;;;;;;;14.25;12.00;;;;;;;;5103968;27;62722;-74
2022/05/03 09:43:00;;;;;;;;;19.50;12.00;;;;;;;;5102935;27;62087;-75
2022/05/03 09:45:26;;;;;;;;;11.75;11.75;;;;;;;;5103206;27;61918;-75
2022/05/03 09:47:56;;;;;;;;;13.25;10.00;;;;;;;;5104616;27;61641;-75
2022/05/03 09:50:28;;;;;;;;;18.50;14.75;;;;;;;;5103265;27;62013;-74
2022/05/03 09:52:53;;;;;;;;;11.50;11.25;;;;;;;;5103836;27;61846;-75
2022/05/03 09:55:33;;;;;;;;;17.50;11.75;;;;;;;;5104500;27;61770;-75
2022/05/03 09:58:02;;;;;;;;;14.75;12.00;;;;;;;;5104230;27;61641;-74
2022/05/03 10:00:28;;;;;;;;;18.25;12.25;;;;;;;;5103755;27;62451;-74
2022/05/03 10:02:54;;;;;;;;;15.00;9.50;;;;;;;;5102822;27;61764;-74
2022/05/03 10:05:21;;;;;;;;;14.25;10.00;;;;;;;;5103440;27;61865;-74
2022/05/03 10:07:48;;;;;;;;;16.50;13.00;;;;;;;;5103533;27;61867;-74
2022/05/03 10:10:14;;;;;;;;;9.25;9.25;;;;;;;;5103687;27;61768;-75
2022/05/03 10:12:41;;;;;;;;;14.00;10.50;;;;;;;;5104213;27;61877;-74
2022/05/03 10:15:07;;;;;;;;;12.75;8.75;;;;;;;;5103955;27;61984;-75
2022/05/03 10:23:02;;;;;;;;;8.50;8.50;;;;;;;;5103793;27;61774;-74
2022/05/03 10:25:50;;;;;;;;;11.50;9.00;;;;;;;;5104121;27;61882;-75
2022/05/03 10:28:17;;;;;;;;;17.25;12.50;;;;;;;;5098167;27;61957;-75
2022/05/03 10:31:01;;;;;;;;;8.50;8.50;;;;;;;;5103357;27;61810;-75
2022/05/03 10:33:28;;;;;;;;;11.25;7.75;;;;;;;;5102415;27;61883;-75
2022/05/03 10:35:54;;;;;;;;;10.50;10.50;;;;;;;;5103161;27;61814;-75
2022/05/03 10:38:38;;;;;;;;;9.25;8.25;;;;;;;;5103251;27;61929;-74
2022/05/03 10:41:09;;;;;;;;;13.00;8.75;;;;;;;;5102870;27;61775;-75
2022/05/03 10:43:34;;;;;;;;;9.00;7.50;;;;;;;;5103798;27;62002;-75
2022/05/03 10:46:20;;;;;;;;;8.75;8.75;;;;;;;;5103625;27;61889;-75
2022/05/03 10:49:02;;;;;;;;;9.25;7.00;;;;;;;;5102556;27;61960;-75
2022/05/03 10:51:27;;;;;;;;;11.00;9.00;;;;;;;;5102712;27;62783;-74
2022/05/03 10:53:57;;;;;;;;;7.75;6.25;;;;;;;;5103416;27;61758;-75
2022/05/03 10:56:23;;;;;;;;;12.25;7.50;;;;;;;;5103498;27;61723;-75
2022/05/03 10:59:06;;;;;;;;;10.75;7.00;;;;;;;;5103686;27;61759;-74
2022/05/03 11:01:32;;;;;;;;;5.50;4.75;;;;;;;;5102745;27;61748;-74
2022/05/03 11:03:58;;;;;;;;;10.50;8.50;;;;;;;;5102820;27;62093;-74
2022/05/03 11:06:23;;;;;;;;;7.75;6.75;;;;;;;;5103037;27;61727;-74
2022/05/03 11:11:44;;;;;;;;;8.25;6.00;;;;;;;;5102878;27;61868;-75
2022/05/03 11:14:22;;;;;;;;;7.75;7.75;;;;;;;;5103116;27;62231;-75
2022/05/03 11:17:08;;;;;;;;;8.00;6.50;;;;;;;;5103324;27;62156;-75
2022/05/03 11:19:37;;;;;;;;;4.75;4.75;;;;;;;;5101432;27;62083;-75
2022/05/03 11:22:13;;;;;;;;;4.25;4.25;;;;;;;;5102840;27;61883;-75
2022/05/03 11:24:45;;;;;;;;;7.00;4.50;;;;;;;;5103419;27;61757;-75
2022/05/03 11:27:11;;;;;;;;;6.25;5.00;;;;;;;;5102765;27;61673;-75
2022/05/03 11:29:37;;;;;;;;;8.75;6.00;;;;;;;;5103450;27;61775;-75
2022/05/03 11:32:06;;;;;;;;;6.00;4.50;;;;;;;;5101241;27;63371;-75
2022/05/03 11:34:32;;;;;;;;;9.00;7.00;;;;;;;;5102383;27;61841;-75
2022/05/03 11:36:58;;;;;;;;;8.00;3.50;;;;;;;;5101405;27;62645;-75
2022/05/03 11:39:24;;;;;;;;;6.50;3.50;;;;;;;;5102702;27;61950;-75
2022/05/03 11:41:49;;;;;;;;;4.50;4.50;;;;;;;;5102420;27;62695;-75
2022/05/03 11:44:15;;;;;;;;;7.25;6.00;;;;;;;;5102733;27;61882;-75
2022/05/03 11:46:42;;;;;;;;;7.75;3.75;;;;;;;;5103053;27;61946;-75
2022/05/03 11:49:09;;;;;;;;;5.50;5.00;;;;;;;;5102257;27;61899;-74
2022/05/03 11:57:15;;;;;;;;;6.50;5.50;;;;;;;;5102628;27;61723;-75
2022/05/03 11:59:42;;;;;;;;;3.25;3.25;;;;;;;;5104646;27;61863;-75
2022/05/03 12:02:17;;;;;;;;;5.00;4.25;;;;;;;;5105293;27;61790;-75
2022/05/03 12:05:19;;;;;;;;;3.50;3.50;;;;;;;;5105695;27;61724;-75
2022/05/03 12:07:44;;;;;;;;;6.75;4.25;;;;;;;;5104424;27;62056;-75
2022/05/03 12:10:20;;;;;;;;;3.50;2.50;;;;;;;;5106320;27;61780;-75
2022/05/03 12:13:02;;;;;;;;;7.50;4.75;;;;;;;;5105766;27;61637;-75
2022/05/03 12:15:28;;;;;;;;;5.33;2.33;;;;;;;;5106022;27;61723;-75
2022/05/03 12:17:57;;;;;;;;;2.67;2.33;;;;;;;;5105480;27;61897;-75
2022/05/03 12:20:22;;;;;;;;;2.67;1.67;;;;;;;;5105922;27;61575;-75
2022/05/03 12:23:08;;;;;;;;;2.00;2.00;;;;;;;;5104881;27;62583;-75
2022/05/03 12:25:33;;;;;;;;;4.00;3.00;;;;;;;;5103907;27;61881;-75
2022/05/03 12:28:02;;;;;;;;;3.00;3.00;;;;;;;;5105702;27;61731;-75
2022/05/03 12:30:27;;;;;;;;;4.67;3.67;;;;;;;;5106128;27;61826;-76
2022/05/03 12:32:52;;;;;;;;;4.00;3.00;;;;;;;;5104678;27;62281;-75
2022/05/03 12:35:27;;;;;;;;;3.00;3.00;;;;;;;;5105528;27;61744;-75
2022/05/03 12:37:52;;;;;;;;;4.67;1.67;;;;;;;;5105360;27;61727;-75
2022/05/03 12:40:25;;;;;;;;;4.67;4.67;;;;;;;;5104449;27;61997;-75
2022/05/03 12:42:50;;;;;;;;;4.00;2.00;;;;;;;;5105282;27;61834;-75
2022/05/03 12:45:19;;;;;;;;;3.00;3.00;;;;;;;;5105126;27;61772;-75
2022/05/03 12:47:45;;;;;;;;;4.00;3.67;;;;;;;;5105730;27;61775;-75
2022/05/03 12:50:10;;;;;;;;;2.00;2.00;;;;;;;;5105228;27;61799;-76
2022/05/03 12:52:35;;;;;;;;;4.00;2.33;;;;;;;;5104991;27;61775;-76
2022/05/03 12:55:01;;;;;;;;;8.00;5.00;;;;;;;;5105461;27;61681;-75
2022/05/03 13:00:11;;;;;;;;;4.00;3.00;;;;;;;;5105446;27;61758;-76
2022/05/03 13:02:37;;;;;;;;;1.67;1.67;;;;;;;;5104775;27;62816;-75
2022/05/03 13:05:04;;;;;;;;;4.00;2.00;;;;;;;;5104909;27;61764;-75
2022/05/03 13:07:30;;;;;;;;;3.00;3.00;;;;;;;;5103742;27;61793;-75
2022/05/03 13:09:55;;;;;;;;;3.00;3.00;;;;;;;;5105293;27;61729;-76
2022/05/03 13:12:20;;;;;;;;;3.67;3.67;;;;;;;;5104005;27;62781;-75
2022/05/03 13:14:45;;;;;;;;;2.00;2.00;;;;;;;;5104820;27;61732;-76
2022/05/03 13:17:11;;;;;;;;;4.00;2.33;;;;;;;;5104991;27;61747;-75
2022/05/03 13:19:36;;;;;;;;;5.33;3.00;;;;;;;;5104947;27;62025;-75
2022/05/03 13:22:01;;;;;;;;;2.00;2.00;;;;;;;;5104613;27;61753;-75
2022/05/03 13:24:27;;;;;;;;;2.33;2.33;;;;;;;;5105038;27;61732;-75
2022/05/03 13:26:52;;;;;;;;;2.00;2.00;;;;;;;;5104969;27;61864;-76
2022/05/03 13:29:19;;;;;;;;;2.00;2.00;;;;;;;;5105046;27;61733;-75
2022/05/03 13:31:45;;;;;;;;;2.00;2.00;;;;;;;;5102740;27;61837;-76
2022/05/03 13:34:11;;;;;;;;;3.00;2.33;;;;;;;;5104955;27;61737;-76
2022/05/03 13:42:05;;;;;;;;;2.67;2.67;;;;;;;;5103964;27;61730;-74
2022/05/03 13:44:31;;;;;;;;;4.00;3.67;;;;;;;;5102606;27;61715;-74
2022/05/03 13:46:58;;;;;;;;;3.00;3.00;;;;;;;;5104613;27;61689;-74
2022/05/03 13:49:23;;;;;;;;;2.00;2.00;;;;;;;;5102022;27;61961;-74
2022/05/03 13:51:49;;;;;;;;;3.33;2.33;;;;;;;;5103620;27;62720;-74
2022/05/03 13:54:14;;;;;;;;;1.00;1.00;;;;;;;;5103085;27;61937;-74
2022/05/03 13:56:39;;;;;;;;;3.33;2.67;;;;;;;;5104418;27;61901;-75
2022/05/03 13:59:05;;;;;;;;;2.67;2.67;;;;;;;;5104177;27;61807;-75
2022/05/03 14:01:31;;;;;;;;;3.33;2.00;;;;;;;;5103631;27;62911;-75
2022/05/03 14:03:59;;;;;;;;;3.00;3.00;;;;;;;;5104342;27;61881;-75
2022/05/03 14:06:24;;;;;;;;;5.67;2.00;;;;;;;;5104065;27;62033;-75
2022/05/03 14:08:50;;;;;;;;;3.00;1.33;;;;;;;;5103939;27;62168;-75
2022/05/03 14:11:15;;;;;;;;;2.00;2.00;;;;;;;;5103587;27;62801;-75
2022/05/03 14:13:40;;;;;;;;;1.67;0.67;;;;;;;;5103623;27;61723;-74
2022/05/03 14:16:05;;;;;;;;;2.67;2.67;;;;;;;;5104348;27;61696;-75
2022/05/03 14:18:31;;;;;;;;;2.00;2.00;;;;;;;;5104185;27;61775;-75
2022/05/03 14:20:56;;;;;;;;;4.00;2.33;;;;;;;;5102735;27;61783;-75
2022/05/03 14:23:21;;;;;;;;;2.00;0.67;;;;;;;;5102768;27;61801;-75
2022/05/03 14:25:47;;;;;;;;;2.00;2.00;;;;;;;;5103938;27;62142;-75
2022/05/03 14:28:13;;;;;;;;;3.00;2.00;;;;;;;;5103835;27;61795;-75
2022/05/03 14:30:39;;;;;;;;;2.00;2.00;;;;;;;;5103417;27;62684;-75
2022/05/03 14:33:06;;;;;;;;;2.33;2.33;;;;;;;;5103783;27;62003;-75
2022/05/03 14:35:32;;;;;;;;;3.67;3.00;;;;;;;;5103650;27;61731;-75
2022/05/03 14:37:57;;;;;;;;;5.00;3.00;;;;;;;;5103483;27;61816;-75
2022/05/03 14:40:24;;;;;;;;;1.00;1.00;;;;;;;;5103307;27;61948;-75
2022/05/03 14:42:49;;;;;;;;;4.33;3.00;;;;;;;;5103489;27;62176;-75
2022/05/03 14:45:17;;;;;;;;;2.33;2.00;;;;;;;;5103482;27;62030;-75
2022/05/03 14:47:42;;;;;;;;;3.00;3.00;;;;;;;;5103872;27;61886;-74
2022/05/03 14:50:08;;;;;;;;;2.00;2.00;;;;;;;;5102339;27;61675;-75
2022/05/03 14:52:33;;;;;;;;;4.00;2.00;;;;;;;;5103734;27;61782;-75
2022/05/03 14:54:59;;;;;;;;;2.67;2.67;;;;;;;;5103263;27;61815;-74
2022/05/03 15:02:55;;;;;;;;;4.00;3.00;;;;;;;;5103484;27;62054;-75
2022/05/03 15:05:23;;;;;;;;;2.00;1.00;;;;;;;;5102864;27;61936;-75
2022/05/03 15:07:49;;;;;;;;;4.33;2.33;;;;;;;;5102784;27;62054;-75
2022/05/03 15:10:15;;;;;;;;;1.00;1.00;;;;;;;;5102247;27;61682;-74
2022/05/03 15:12:40;;;;;;;;;3.00;2.00;;;;;;;;5103513;27;61888;-75
2022/05/03 15:15:06;;;;;;;;;2.67;2.00;;;;;;;;5103518;27;61789;-75
2022/05/03 15:17:31;;;;;;;;;1.00;1.00;;;;;;;;5103431;27;61935;-75
2022/05/03 15:19:56;;;;;;;;;0.00;0.00;;;;;;;;5102016;27;62655;-75
2022/05/03 15:24:35;;;;;;;;;1.67;1.67;;;;;;;;5103029;27;61723;-74